createdAt,value
2018-12-14T00:00:45.579Z,12.28
2018-12-14T00:03:17.910Z,13.08
2018-12-14T00:05:50.009Z,12.75
2018-12-14T00:08:22.274Z,13.62
2018-12-14T00:10:57.224Z,13.00
2018-12-14T00:13:29.664Z,12.93
2018-12-14T00:16:02.168Z,12.80
2018-12-14T00:18:34.142Z,13.45
2018-12-14T00:21:06.831Z,12.40
2018-12-14T00:23:42.294Z,13.10
2018-12-14T00:26:14.945Z,13.03
2018-12-14T00:28:46.713Z,12.28
2018-12-14T00:31:20.514Z,11.97
2018-12-14T00:33:57.796Z,14.23
2018-12-14T00:36:30.898Z,12.35
2018-12-14T00:39:04.800Z,12.68
2018-12-14T00:41:37.422Z,10.95
2018-12-14T00:44:16.022Z,12.00
2018-12-14T00:46:48.577Z,11.90
2018-12-14T00:49:20.505Z,11.08
2018-12-14T00:51:57.211Z,10.88
2018-12-14T00:54:32.274Z,10.65
2018-12-14T00:57:09.161Z,10.30
2018-12-14T00:59:44.618Z,11.93
2018-12-14T01:02:22.477Z,11.18
2018-12-14T01:04:57.465Z,13.28
2018-12-14T01:07:29.896Z,11.80
2018-12-14T01:10:02.033Z,12.30
2018-12-14T01:12:34.736Z,13.22
2018-12-14T01:15:07.663Z,12.33
2018-12-14T01:17:49.075Z,11.85
2018-12-14T01:20:21.635Z,11.15
2018-12-14T01:22:56.763Z,11.73
2018-12-14T01:25:29.351Z,11.97
2018-12-14T01:28:01.959Z,11.00
2018-12-14T01:30:34.066Z,11.65
2018-12-14T01:33:06.222Z,12.55
2018-12-14T01:35:38.132Z,10.70
2018-12-14T01:38:13.459Z,11.40
2018-12-14T01:40:45.369Z,11.93
2018-12-14T01:43:20.225Z,13.35
2018-12-14T01:45:57.223Z,11.73
2018-12-14T01:48:29.515Z,11.93
2018-12-14T01:51:02.287Z,11.57
2018-12-14T01:53:35.314Z,11.53
2018-12-14T01:56:07.745Z,11.65
2018-12-14T01:58:47.409Z,13.60
2018-12-14T02:01:23.065Z,12.05
2018-12-14T02:03:59.107Z,11.48
2018-12-14T02:06:31.445Z,11.28
2018-12-14T02:09:10.322Z,13.68
2018-12-14T02:11:45.299Z,13.85
2018-12-14T02:14:22.273Z,11.73
2018-12-14T02:16:59.234Z,11.18
2018-12-14T02:19:31.654Z,9.88
2018-12-14T02:22:06.532Z,10.45
2018-12-14T02:24:39.022Z,10.08
2018-12-14T02:27:11.069Z,10.98
2018-12-14T02:29:43.009Z,11.60
2018-12-14T02:32:15.056Z,11.95
2018-12-14T02:37:22.095Z,11.95
2018-12-14T02:39:54.786Z,10.60
2018-12-14T02:42:30.120Z,10.35
2018-12-14T02:45:02.240Z,10.88
2018-12-14T02:47:34.413Z,10.98
2018-12-14T02:50:08.319Z,11.12
2018-12-14T02:52:40.937Z,10.85
2018-12-14T02:55:13.123Z,12.93
2018-12-14T02:57:45.344Z,10.43
2018-12-14T03:00:20.169Z,11.05
2018-12-14T03:02:52.839Z,12.53
2018-12-14T03:05:28.004Z,11.05
2018-12-14T03:08:04.352Z,10.98
2018-12-14T03:10:37.551Z,11.80
2018-12-14T03:13:12.347Z,10.72
2018-12-14T03:15:44.953Z,11.97
2018-12-14T03:18:17.608Z,10.72
2018-12-14T03:20:52.430Z,11.60
2018-12-14T03:23:27.642Z,10.75
2018-12-14T03:26:03.115Z,10.20
2018-12-14T03:28:35.334Z,11.40
2018-12-14T03:31:10.085Z,12.55
2018-12-14T03:33:42.423Z,11.22
2018-12-14T03:36:14.418Z,13.18
2018-12-14T03:41:21.407Z,10.72
2018-12-14T03:43:53.235Z,10.65
2018-12-14T03:46:27.920Z,10.32
2018-12-14T03:49:02.972Z,10.30
2018-12-14T03:51:35.114Z,11.00
2018-12-14T03:54:10.060Z,9.25
2018-12-14T03:56:42.491Z,10.40
2018-12-14T03:59:15.088Z,10.90
2018-12-14T04:01:48.173Z,11.20
2018-12-14T04:04:20.102Z,10.90
2018-12-14T04:06:52.036Z,9.85
2018-12-14T04:09:24.052Z,10.85
2018-12-14T04:11:55.921Z,11.20
2018-12-14T04:14:32.915Z,10.90
2018-12-14T04:17:08.243Z,11.45
2018-12-14T04:19:40.157Z,9.78
2018-12-14T04:22:16.037Z,11.60
2018-12-14T04:24:48.402Z,10.75
2018-12-14T04:27:20.987Z,12.35
2018-12-14T04:29:52.818Z,11.63
2018-12-14T04:32:25.171Z,10.48
2018-12-14T04:34:57.911Z,12.68
2018-12-14T04:37:33.506Z,10.28
2018-12-14T04:45:18.750Z,12.40
2018-12-14T04:47:50.718Z,11.78
2018-12-14T04:50:23.472Z,12.23
2018-12-14T04:52:58.538Z,11.12
2018-12-14T04:55:31.186Z,11.68
2018-12-14T04:58:04.764Z,12.03
2018-12-14T05:00:37.169Z,9.90
2018-12-14T05:03:09.015Z,10.72
2018-12-14T05:05:41.299Z,11.63
2018-12-14T05:08:13.571Z,11.48
2018-12-14T05:10:48.334Z,12.25
2018-12-14T05:13:20.673Z,12.45
2018-12-14T05:15:53.018Z,11.97
2018-12-14T05:18:24.975Z,10.50
2018-12-14T05:20:57.234Z,10.78
2018-12-14T05:23:29.343Z,11.83
2018-12-14T05:26:04.225Z,10.85
2018-12-14T05:28:39.359Z,10.40
2018-12-14T05:31:11.599Z,12.45
2018-12-14T05:33:47.273Z,10.15
2018-12-14T05:36:19.392Z,11.03
2018-12-14T05:38:55.039Z,9.70
2018-12-14T05:41:27.488Z,9.98
2018-12-14T05:43:59.531Z,10.23
2018-12-14T06:04:29.634Z,11.05
2018-12-14T06:09:34.533Z,10.88
2018-12-14T06:12:06.829Z,12.10
2018-12-14T06:14:39.605Z,15.15
2018-12-14T06:17:13.206Z,12.13
2018-12-14T06:19:48.387Z,12.00
2018-12-14T06:22:20.903Z,11.22
2018-12-14T06:24:56.092Z,11.83
2018-12-14T06:27:28.339Z,11.48
2018-12-14T06:30:00.317Z,10.93
2018-12-14T06:32:32.775Z,10.72
2018-12-14T06:35:06.871Z,10.68
2018-12-14T06:37:42.998Z,11.90
2018-12-14T06:40:18.449Z,10.68
2018-12-14T06:42:51.110Z,11.43
2018-12-14T06:45:23.147Z,10.15
2018-12-14T06:47:55.168Z,9.55
2018-12-14T06:50:29.123Z,9.95
2018-12-14T06:53:01.971Z,9.80
2018-12-14T06:55:37.317Z,10.28
2018-12-14T06:58:09.529Z,8.28
2018-12-14T07:00:45.357Z,9.98
2018-12-14T07:03:18.024Z,10.80
2018-12-14T07:05:50.499Z,10.18
2018-12-14T07:08:22.714Z,11.22
2018-12-14T07:13:29.740Z,10.82
2018-12-14T07:16:04.782Z,10.70
2018-12-14T07:18:37.928Z,11.40
2018-12-14T07:21:10.472Z,12.43
2018-12-14T07:23:42.969Z,11.10
2018-12-14T07:26:14.849Z,15.08
2018-12-14T07:28:46.766Z,12.47
2018-12-14T07:31:18.908Z,10.78
2018-12-14T07:33:53.897Z,13.15
2018-12-14T07:36:26.431Z,12.25
2018-12-14T07:38:58.501Z,13.30
2018-12-14T07:41:33.372Z,11.43
2018-12-14T07:44:08.226Z,11.93
2018-12-14T07:46:40.709Z,12.95
2018-12-14T07:49:12.597Z,12.37
2018-12-14T07:51:44.658Z,12.23
2018-12-14T07:54:19.632Z,12.58
2018-12-14T07:56:55.686Z,11.97
2018-12-14T07:59:28.134Z,18.27
2018-12-14T08:02:02.872Z,17.30
2018-12-14T08:04:35.470Z,14.07
2018-12-14T08:07:07.632Z,12.18
2018-12-14T08:09:42.829Z,12.73
2018-12-14T08:12:15.899Z,12.98
2018-12-14T08:14:51.071Z,13.60
2018-12-14T08:17:26.127Z,12.33
2018-12-14T08:19:58.321Z,13.20
2018-12-14T08:22:30.588Z,12.70
2018-12-14T08:25:06.357Z,12.07
2018-12-14T08:27:38.671Z,11.80
2018-12-14T08:30:10.921Z,10.85
2018-12-14T08:32:42.702Z,10.40
2018-12-14T08:35:14.815Z,12.70
2018-12-14T08:37:49.870Z,11.08
2018-12-14T08:40:21.922Z,10.60
2018-12-14T08:42:56.930Z,10.65
2018-12-14T08:45:29.207Z,10.60
2018-12-14T08:48:01.514Z,8.58
2018-12-14T08:50:36.430Z,10.30
2018-12-14T08:53:08.377Z,12.60
2018-12-14T08:55:40.756Z,11.30
2018-12-14T08:58:13.473Z,12.87
2018-12-14T09:00:53.002Z,12.93
2018-12-14T09:03:32.483Z,14.25
2018-12-14T09:06:09.642Z,11.80
2018-12-14T09:11:58.109Z,13.57
2018-12-14T09:14:32.846Z,12.97
2018-12-14T09:17:11.910Z,13.23
2018-12-14T09:19:47.610Z,12.57
2018-12-14T09:22:23.116Z,12.87
2018-12-14T09:24:58.494Z,13.60
2018-12-14T09:27:31.524Z,14.60
2018-12-14T09:30:06.764Z,15.87
2018-12-14T09:32:41.900Z,16.43
2018-12-14T09:35:14.905Z,15.20
2018-12-14T09:37:47.336Z,16.07
2018-12-14T09:40:21.080Z,15.00
2018-12-14T09:42:56.198Z,14.67
2018-12-14T09:45:28.387Z,15.37
2018-12-14T09:48:00.566Z,14.63
2018-12-14T09:50:35.418Z,14.67
2018-12-14T09:53:07.625Z,14.37
2018-12-14T09:55:46.315Z,13.33
2018-12-14T09:58:18.927Z,14.60
2018-12-14T10:00:52.471Z,14.50
2018-12-14T10:03:24.927Z,12.53
2018-12-14T10:05:57.046Z,12.93
2018-12-14T10:08:29.279Z,12.07
2018-12-14T10:11:02.280Z,12.77
2018-12-14T10:13:34.056Z,12.40
2018-12-14T10:16:06.852Z,11.83
2018-12-14T10:18:39.912Z,12.20
2018-12-14T10:23:45.802Z,13.57
2018-12-14T10:44:21.738Z,11.97
2018-12-14T10:46:56.796Z,10.77
2018-12-14T10:49:30.090Z,10.70
2018-12-14T10:52:04.984Z,11.00
2018-12-14T10:54:37.812Z,10.67
2018-12-14T10:57:16.058Z,10.33
2018-12-14T10:59:44.700Z,9.77
2018-12-14T11:02:19.295Z,10.07
2018-12-14T11:04:51.627Z,10.03
2018-12-14T11:07:23.606Z,10.47
2018-12-14T11:10:02.303Z,10.33
2018-12-14T11:12:34.597Z,9.80
2018-12-14T11:15:07.198Z,9.10
2018-12-14T11:17:42.366Z,9.90
2018-12-14T11:20:14.926Z,9.93
2018-12-14T11:22:47.573Z,10.53
2018-12-14T11:25:22.345Z,10.33
2018-12-14T11:27:54.588Z,9.47
2018-12-14T11:30:26.761Z,9.43
2018-12-14T11:33:03.422Z,9.47
2018-12-14T11:35:38.457Z,9.20
2018-12-14T11:38:11.493Z,10.27
2018-12-14T11:40:44.049Z,9.77
2018-12-14T11:43:17.239Z,10.60
2018-12-14T11:45:49.718Z,10.10
2018-12-14T11:48:21.872Z,9.90
2018-12-14T11:50:56.928Z,8.73
2018-12-14T11:53:29.683Z,10.20
2018-12-14T11:56:01.952Z,10.20
2018-12-14T11:58:36.895Z,9.57
2018-12-14T12:01:08.990Z,9.67
2018-12-14T12:03:44.940Z,10.03
2018-12-14T12:06:32.488Z,9.83
2018-12-14T12:09:09.000Z,9.40
2018-12-14T12:11:44.463Z,9.93
2018-12-14T12:14:17.368Z,10.73
2018-12-14T12:16:49.738Z,9.33
2018-12-14T12:19:21.741Z,7.93
2018-12-14T12:21:54.689Z,9.17
2018-12-14T12:24:27.389Z,9.10
2018-12-14T12:26:59.376Z,9.13
2018-12-14T12:29:31.482Z,8.50
2018-12-14T12:32:03.611Z,9.03
2018-12-14T12:34:38.338Z,8.83
2018-12-14T12:37:13.479Z,8.87
2018-12-14T12:39:45.743Z,8.10
2018-12-14T12:42:17.893Z,8.30
2018-12-14T12:44:49.870Z,8.27
2018-12-14T12:47:23.230Z,7.83
2018-12-14T12:52:31.052Z,8.37
2018-12-14T12:55:06.185Z,7.60
2018-12-14T12:57:41.832Z,8.17
2018-12-14T13:00:14.975Z,8.73
2018-12-14T13:02:51.119Z,10.27
2018-12-14T13:05:23.810Z,8.17
2018-12-14T13:07:56.227Z,7.37
2018-12-14T13:10:27.764Z,7.60
2018-12-14T13:13:00.479Z,7.63
2018-12-14T13:15:32.584Z,7.63
2018-12-14T13:18:05.731Z,7.40
2018-12-14T13:20:41.505Z,7.33
2018-12-14T13:23:13.997Z,7.50
2018-12-14T13:25:46.520Z,7.87
2018-12-14T13:28:18.741Z,6.80
2018-12-14T13:30:54.153Z,7.60
2018-12-14T13:33:26.903Z,7.97
2018-12-14T13:35:59.178Z,7.40
2018-12-14T13:38:33.161Z,6.90
2018-12-14T13:41:08.343Z,7.20
2018-12-14T13:43:46.138Z,6.73
2018-12-14T13:46:18.282Z,7.10
2018-12-14T13:48:50.045Z,8.20
2018-12-14T13:56:34.354Z,7.60
2018-12-14T13:59:07.110Z,7.17
2018-12-14T14:01:40.021Z,7.87
2018-12-14T14:04:12.021Z,8.23
2018-12-14T14:06:45.504Z,8.13
2018-12-14T14:09:22.206Z,7.60
2018-12-14T14:11:56.912Z,8.33
2018-12-14T14:14:30.712Z,8.10
2018-12-14T14:17:02.654Z,8.23
2018-12-14T14:19:35.585Z,8.97
2018-12-14T14:22:10.680Z,8.60
2018-12-14T14:24:43.040Z,8.53
2018-12-14T14:27:22.239Z,8.70
2018-12-14T14:29:59.212Z,8.60
2018-12-14T14:32:35.372Z,8.53
2018-12-14T14:35:07.995Z,9.07
2018-12-14T14:37:40.108Z,9.30
2018-12-14T14:40:14.932Z,9.07
2018-12-14T14:42:50.121Z,8.33
2018-12-14T14:45:22.676Z,8.27
2018-12-14T14:47:58.135Z,8.73
2018-12-14T14:50:30.706Z,9.10
2018-12-14T14:53:02.611Z,9.20
2018-12-14T14:55:34.722Z,7.97
2018-12-14T14:58:06.921Z,10.27
2018-12-14T15:00:38.910Z,8.77
2018-12-14T15:03:11.681Z,9.87
2018-12-14T15:05:44.251Z,9.83
2018-12-14T15:08:19.575Z,10.40
2018-12-14T15:10:53.846Z,8.00
2018-12-14T15:13:28.563Z,9.60
2018-12-14T15:16:05.720Z,9.70
2018-12-14T15:18:40.611Z,9.40
2018-12-14T15:21:13.954Z,10.07
2018-12-14T15:23:49.056Z,9.63
2018-12-14T15:26:21.090Z,9.90
2018-12-14T15:28:54.372Z,11.40
2018-12-14T15:31:29.144Z,11.50
2018-12-14T15:34:04.668Z,12.73
2018-12-14T15:36:36.780Z,13.00
2018-12-14T15:39:08.773Z,13.23
2018-12-14T15:41:40.954Z,12.63
2018-12-14T15:44:12.720Z,10.70
2018-12-14T15:46:44.950Z,13.47
2018-12-14T15:49:16.952Z,12.03
2018-12-14T15:51:55.644Z,11.60
2018-12-14T15:54:30.976Z,12.77
2018-12-14T15:59:42.512Z,12.70
2018-12-14T16:02:14.635Z,12.43
2018-12-14T16:04:53.329Z,15.27
2018-12-14T16:07:30.092Z,14.37
2018-12-14T16:10:02.832Z,17.73
2018-12-14T16:12:38.504Z,16.70
2018-12-14T16:15:26.183Z,15.70
2018-12-14T16:18:01.137Z,14.07
2018-12-14T16:20:36.069Z,18.33
2018-12-14T16:23:08.476Z,15.63
2018-12-14T16:25:43.407Z,16.13
2018-12-14T16:31:31.382Z,15.80
2018-12-14T16:34:06.019Z,16.37
2018-12-14T16:36:39.776Z,15.43
2018-12-14T16:39:17.227Z,15.07
2018-12-14T16:41:55.858Z,15.30
2018-12-14T16:44:29.494Z,16.20
2018-12-14T16:47:05.170Z,17.83
2018-12-14T16:49:38.128Z,17.47
2018-12-14T16:52:14.846Z,18.70
2018-12-14T16:54:51.113Z,16.77
2018-12-14T16:57:25.729Z,21.50
2018-12-14T16:59:59.316Z,17.93
2018-12-14T17:02:32.663Z,18.63
2018-12-14T17:05:07.616Z,17.93
2018-12-14T17:07:41.170Z,16.47
2018-12-14T17:10:14.156Z,19.33
2018-12-14T17:12:46.537Z,17.23
2018-12-14T17:15:18.717Z,17.60
2018-12-14T17:17:50.867Z,19.30
2018-12-14T17:20:23.429Z,20.00
2018-12-14T17:22:55.275Z,16.03
2018-12-14T17:25:32.232Z,15.30
2018-12-14T17:28:05.340Z,15.13
2018-12-14T17:30:38.596Z,12.87
2018-12-14T17:33:17.760Z,13.37
2018-12-14T17:35:51.273Z,12.70
2018-12-14T17:38:26.451Z,13.80
2018-12-14T17:40:58.798Z,15.03
2018-12-14T17:43:33.790Z,15.00
2018-12-14T17:46:06.033Z,15.17
2018-12-14T17:48:38.663Z,15.53
2018-12-14T17:51:15.203Z,15.07
2018-12-14T17:53:47.493Z,16.37
2018-12-14T17:56:23.253Z,15.47
2018-12-14T17:58:56.835Z,17.07
2018-12-14T18:01:33.441Z,16.43
2018-12-14T18:04:05.571Z,16.30
2018-12-14T18:06:40.612Z,16.73
2018-12-14T18:09:15.422Z,21.10
2018-12-14T18:11:48.017Z,17.97
2018-12-14T18:14:23.349Z,17.00
2018-12-14T18:16:55.250Z,17.83
2018-12-14T18:19:27.030Z,16.73
2018-12-14T18:21:59.064Z,17.97
2018-12-14T18:24:34.108Z,17.90
2018-12-14T18:27:06.003Z,17.87
2018-12-14T18:29:40.570Z,18.27
2018-12-14T18:32:14.016Z,19.27
2018-12-14T18:34:46.094Z,18.77
2018-12-14T18:37:18.293Z,18.50
2018-12-14T18:39:50.261Z,21.03
2018-12-14T18:42:24.981Z,22.67
2018-12-14T18:44:57.427Z,20.10
2018-12-14T18:47:32.171Z,21.87
2018-12-14T18:50:06.595Z,21.17
2018-12-14T18:52:41.522Z,19.80
2018-12-14T18:55:16.682Z,23.80
2018-12-14T18:57:51.775Z,22.80
2018-12-14T19:00:25.286Z,20.13
2018-12-14T19:05:32.248Z,20.63
2018-12-14T19:08:04.781Z,20.13
2018-12-14T19:10:39.958Z,18.03
2018-12-14T19:13:16.016Z,17.20
2018-12-14T19:15:48.657Z,16.97
2018-12-14T19:18:23.682Z,19.60
2018-12-14T19:20:56.776Z,18.80
2018-12-14T19:23:31.815Z,17.33
2018-12-14T19:26:06.730Z,17.63
2018-12-14T19:28:39.905Z,19.77
2018-12-14T19:31:13.249Z,19.37
2018-12-14T19:33:45.218Z,18.60
2018-12-14T19:36:17.896Z,18.47
2018-12-14T19:38:49.936Z,17.23
2018-12-14T19:41:22.839Z,18.80
2018-12-14T19:43:57.648Z,18.40
2018-12-14T19:46:32.794Z,18.47
2018-12-14T19:49:08.083Z,18.13
2018-12-14T19:51:43.503Z,18.27
2018-12-14T19:54:16.482Z,19.67
2018-12-14T19:56:49.069Z,16.93
2018-12-14T19:59:21.838Z,19.40
2018-12-14T20:01:57.590Z,19.37
